createdAt,value
2024-02-12T00:01:42.106Z,96465.88
2024-02-12T00:04:09.025Z,96459.78
2024-02-12T00:06:36.511Z,96459.59
2024-02-12T00:09:06.817Z,96454.28
2024-02-12T00:11:33.683Z,96465.88
2024-02-12T00:14:01.456Z,96461.38
2024-02-12T00:16:28.839Z,96457.59
2024-02-12T00:18:55.603Z,96454.63
2024-02-12T00:21:22.249Z,96455.75
2024-02-12T00:23:49.076Z,96459.66
2024-02-12T00:26:15.872Z,96454.94
2024-02-12T00:28:43.014Z,96459.16
2024-02-12T00:31:13.651Z,96461.47
2024-02-12T00:33:41.902Z,96466.91
2024-02-12T00:36:10.320Z,96454.88
2024-02-12T00:38:40.770Z,96460.22
2024-02-12T00:41:15.723Z,96468.97
2024-02-12T00:43:45.370Z,96466.19
2024-02-12T00:46:12.937Z,96468.53
2024-02-12T00:48:39.813Z,96467.34
2024-02-12T00:51:07.214Z,96471.88
2024-02-12T00:53:34.726Z,96471.88
2024-02-12T00:56:03.304Z,96472.97
2024-02-12T00:58:30.837Z,96471.56
2024-02-12T01:00:58.153Z,96476.88
2024-02-12T01:03:25.321Z,96472.16
2024-02-12T01:05:52.157Z,96474.84
2024-02-12T01:08:19.057Z,96480.59
2024-02-12T01:10:46.496Z,96473.38
2024-02-12T01:13:14.106Z,96478.03
2024-02-12T01:15:42.148Z,96477.25
2024-02-12T01:18:11.310Z,96473.88
2024-02-12T01:20:39.029Z,96481.78
2024-02-12T01:23:07.870Z,96479.41
2024-02-12T01:25:34.771Z,96479.69
2024-02-12T01:28:01.846Z,96481.09
2024-02-12T01:30:29.911Z,96481.69
2024-02-12T01:32:57.392Z,96472.72
2024-02-12T01:35:24.611Z,96487.97
2024-02-12T01:37:52.962Z,96479.81
2024-02-12T01:40:19.931Z,96480.53
2024-02-12T01:42:46.719Z,96476.28
2024-02-12T01:45:15.031Z,96472.34
2024-02-12T01:47:43.864Z,96480.31
2024-02-12T01:50:14.341Z,96474.91
2024-02-12T01:52:41.922Z,96467.41
2024-02-12T01:55:08.880Z,96476.38
2024-02-12T01:57:35.601Z,96477.13
2024-02-12T02:00:11.473Z,96471.22
2024-02-12T02:02:44.128Z,96478.13
2024-02-12T02:05:15.026Z,96470.16
2024-02-12T02:07:42.755Z,96474.38
2024-02-12T02:10:10.853Z,96467.19
2024-02-12T02:12:40.621Z,96468.25
2024-02-12T02:15:07.779Z,96474.06
2024-02-12T02:17:34.892Z,96473.81
2024-02-12T02:20:01.805Z,96470.06
2024-02-12T02:22:29.501Z,96471.66
2024-02-12T02:24:58.215Z,96474.16
2024-02-12T02:27:25.279Z,96472.00
2024-02-12T02:29:51.987Z,96475.94
2024-02-12T02:32:18.699Z,96477.50
2024-02-12T02:34:45.821Z,96477.38
2024-02-12T02:37:12.793Z,96480.72
2024-02-12T02:39:39.498Z,96479.56
2024-02-12T02:42:08.827Z,96478.41
2024-02-12T02:44:36.520Z,96480.38
2024-02-12T02:47:05.564Z,96492.06
2024-02-12T02:49:32.741Z,96486.66
2024-02-12T02:51:59.591Z,96482.50
2024-02-12T02:54:26.440Z,96487.22
2024-02-12T02:56:53.492Z,96479.94
2024-02-12T02:59:21.466Z,96483.34
2024-02-12T03:01:48.134Z,96488.38
2024-02-12T03:04:18.174Z,96486.31
2024-02-12T03:06:44.840Z,96493.53
2024-02-12T03:09:11.964Z,96489.16
2024-02-12T03:11:38.967Z,96494.78
2024-02-12T03:14:05.918Z,96495.38
2024-02-12T03:16:34.015Z,96495.09
2024-02-12T03:19:02.016Z,96498.66
2024-02-12T03:21:28.728Z,96497.31
2024-02-12T03:23:55.471Z,96500.25
2024-02-12T03:26:22.253Z,96493.94
2024-02-12T03:28:50.853Z,96499.84
2024-02-12T03:31:17.744Z,96499.47
2024-02-12T03:33:44.404Z,96499.47
2024-02-12T03:36:11.416Z,96503.38
2024-02-12T03:38:38.493Z,96507.75
2024-02-12T03:41:08.607Z,96505.66
2024-02-12T03:43:39.227Z,96516.31
2024-02-12T03:46:06.803Z,96511.00
2024-02-12T03:48:52.177Z,96507.66
2024-02-12T03:51:37.615Z,96514.03
2024-02-12T03:54:22.789Z,96523.69
2024-02-12T03:57:08.143Z,96518.56
2024-02-12T03:59:54.433Z,96518.56
2024-02-12T04:02:21.286Z,96531.38
2024-02-12T04:04:47.949Z,96527.91
2024-02-12T04:07:16.270Z,96525.25
2024-02-12T04:09:44.049Z,96531.38
2024-02-12T04:12:13.905Z,96538.84
2024-02-12T04:14:41.765Z,96537.88
2024-02-12T04:17:08.711Z,96542.91
2024-02-12T04:19:35.379Z,96539.44
2024-02-12T04:22:02.609Z,96545.84
2024-02-12T04:24:36.795Z,96549.09
2024-02-12T04:27:05.087Z,96552.94
2024-02-12T04:29:32.936Z,96560.03
2024-02-12T04:31:59.711Z,96563.97
2024-02-12T04:34:26.542Z,96566.75
2024-02-12T04:36:56.535Z,96573.72
2024-02-12T04:39:23.217Z,96569.56
2024-02-12T04:41:52.451Z,96575.09
2024-02-12T04:44:19.389Z,96578.03
2024-02-12T04:46:46.649Z,96575.38
2024-02-12T04:49:14.366Z,96582.47
2024-02-12T04:51:41.706Z,96583.38
2024-02-12T04:54:08.966Z,96582.00
2024-02-12T04:56:35.855Z,96584.34
2024-02-12T04:59:03.131Z,96593.63
2024-02-12T05:01:29.794Z,96578.44
2024-02-12T05:03:56.776Z,96595.69
2024-02-12T05:06:23.914Z,96597.25
2024-02-12T05:08:53.068Z,96596.75
2024-02-12T05:11:21.303Z,96604.25
2024-02-12T05:13:48.508Z,96603.47
2024-02-12T05:16:15.739Z,96601.41
2024-02-12T05:19:01.252Z,96604.34
2024-02-12T05:21:51.067Z,96607.00
2024-02-12T05:24:17.678Z,96603.84
2024-02-12T05:26:44.355Z,96612.31
2024-02-12T05:29:11.407Z,96620.38
2024-02-12T05:31:38.125Z,96620.78
2024-02-12T05:34:04.956Z,96621.56
2024-02-12T05:36:31.953Z,96618.13
2024-02-12T05:38:58.725Z,96616.84
2024-02-12T05:41:25.402Z,96622.94
2024-02-12T05:43:54.508Z,96623.63
2024-02-12T05:46:21.375Z,96627.19
2024-02-12T05:48:48.828Z,96636.25
2024-02-12T05:51:15.940Z,96637.06
2024-02-12T05:53:42.807Z,96631.53
2024-02-12T05:56:09.681Z,96638.69
2024-02-12T05:58:36.592Z,96641.66
2024-02-12T06:01:03.861Z,96647.78
2024-02-12T06:03:31.864Z,96651.22
2024-02-12T06:05:59.819Z,96643.84
2024-02-12T06:08:27.877Z,96650.72
2024-02-12T06:10:54.916Z,96653.97
2024-02-12T06:13:21.830Z,96653.97
2024-02-12T06:15:48.568Z,96649.16
2024-02-12T06:18:15.945Z,96659.22
2024-02-12T06:20:42.829Z,96667.66
2024-02-12T06:23:09.908Z,96662.63
2024-02-12T06:25:36.571Z,96668.34
2024-02-12T06:28:10.586Z,96680.03
2024-02-12T06:30:37.341Z,96677.38
2024-02-12T06:33:04.605Z,96686.16
2024-02-12T06:35:31.735Z,96691.47
2024-02-12T06:38:01.770Z,96693.25
2024-02-12T06:40:28.435Z,96702.50
2024-02-12T06:42:55.148Z,96696.63
2024-02-12T06:45:21.765Z,96710.41
2024-02-12T06:47:48.763Z,96707.75
2024-02-12T06:50:15.691Z,96709.63
2024-02-12T06:52:42.418Z,96720.75
2024-02-12T06:55:12.677Z,96724.50
2024-02-12T06:57:39.367Z,96722.16
2024-02-12T07:00:06.556Z,96724.81
2024-02-12T07:02:37.277Z,96732.28
2024-02-12T07:05:04.691Z,96733.16
2024-02-12T07:07:32.104Z,96737.38
2024-02-12T07:09:59.135Z,96735.22
2024-02-12T07:12:25.835Z,96742.78
2024-02-12T07:14:52.549Z,96752.91
2024-02-12T07:17:23.228Z,96748.97
2024-02-12T07:19:53.112Z,96756.38
2024-02-12T07:22:22.930Z,96763.25
2024-02-12T07:24:50.576Z,96763.97
2024-02-12T07:27:18.646Z,96761.75
2024-02-12T07:29:46.234Z,96770.41
2024-02-12T07:32:16.059Z,96778.41
2024-02-12T07:34:42.876Z,96780.25
2024-02-12T07:37:09.642Z,96773.66
2024-02-12T07:39:36.286Z,96792.06
2024-02-12T07:42:03.048Z,96784.19
2024-02-12T07:44:29.848Z,96786.03
2024-02-12T07:46:59.612Z,96796.97
2024-02-12T07:49:26.391Z,96796.16
2024-02-12T07:51:54.137Z,96803.38
2024-02-12T07:54:21.150Z,96807.09
2024-02-12T07:56:48.762Z,96813.72
2024-02-12T07:59:15.881Z,96809.69
2024-02-12T08:01:43.779Z,96815.28
2024-02-12T08:04:10.449Z,96821.19
2024-02-12T08:06:37.425Z,96820.94
2024-02-12T08:09:04.437Z,96818.81
2024-02-12T08:11:31.958Z,96832.59
2024-02-12T08:13:58.693Z,96825.06
2024-02-12T08:16:25.296Z,96828.69
2024-02-12T08:18:53.402Z,96826.03
2024-02-12T08:21:20.229Z,96836.03
2024-02-12T08:23:47.066Z,96844.00
2024-02-12T08:26:13.779Z,96845.59
2024-02-12T08:28:43.376Z,96848.53
2024-02-12T08:31:10.059Z,96850.91
2024-02-12T08:33:38.051Z,96854.94
2024-02-12T08:36:06.042Z,96854.44
2024-02-12T08:38:32.719Z,96861.94
2024-02-12T08:41:01.406Z,96866.16
2024-02-12T08:43:28.268Z,96870.19
2024-02-12T08:45:54.929Z,96874.41
2024-02-12T08:48:21.647Z,96875.78
2024-02-12T08:50:50.863Z,96873.91
2024-02-12T08:53:18.393Z,96880.31
2024-02-12T08:55:45.280Z,96886.16
2024-02-12T08:58:12.410Z,96887.72
2024-02-12T09:00:39.307Z,96899.44
2024-02-12T09:03:06.225Z,96908.19
2024-02-12T09:05:33.175Z,96898.06
2024-02-12T09:07:59.918Z,96910.00
2024-02-12T09:10:26.555Z,96908.41
2024-02-12T09:12:54.238Z,96921.72
2024-02-12T09:15:21.800Z,96924.56
2024-02-12T09:17:49.201Z,96927.22
2024-02-12T09:20:16.451Z,96930.69
2024-02-12T09:22:43.322Z,96931.78
2024-02-12T09:25:11.064Z,96929.97
2024-02-12T09:27:37.701Z,96935.50
2024-02-12T09:30:10.557Z,96946.13
2024-02-12T09:32:40.484Z,96948.03
2024-02-12T09:35:08.188Z,96952.06
2024-02-12T09:37:35.288Z,96953.91
2024-02-12T09:40:04.370Z,96953.91
2024-02-12T09:42:33.305Z,96953.41
2024-02-12T09:45:03.780Z,96957.16
2024-02-12T09:47:32.928Z,96955.91
2024-02-12T09:49:59.776Z,96964.69
2024-02-12T09:52:27.976Z,96964.97
2024-02-12T09:54:55.147Z,96967.13
2024-02-12T09:57:21.797Z,96978.63
2024-02-12T09:59:49.191Z,96970.13
2024-02-12T10:02:16.005Z,96980.13
2024-02-12T10:04:42.660Z,96978.00
2024-02-12T10:07:09.612Z,96979.28
2024-02-12T10:09:37.141Z,96981.31
2024-02-12T10:12:08.252Z,96979.56
2024-02-12T10:14:35.141Z,96985.91
2024-02-12T10:17:02.344Z,96989.88
2024-02-12T10:19:29.499Z,96990.09
2024-02-12T10:21:56.476Z,96995.41
2024-02-12T10:24:23.162Z,96996.19
2024-02-12T10:26:50.516Z,96991.44
2024-02-12T10:29:19.334Z,97005.53
2024-02-12T10:31:47.527Z,96998.06
2024-02-12T10:34:16.987Z,97003.44
2024-02-12T10:36:45.070Z,97004.25
2024-02-12T10:39:14.040Z,97008.78
2024-02-12T10:41:41.368Z,97007.19
2024-02-12T10:44:08.121Z,97014.91
2024-02-12T10:46:36.082Z,97005.03
2024-02-12T10:49:03.037Z,97014.91
2024-02-12T10:51:29.925Z,97012.72
2024-02-12T10:53:57.035Z,97010.63
2024-02-12T10:56:24.270Z,97010.34
2024-02-12T10:58:51.043Z,97019.41
2024-02-12T11:01:18.311Z,97018.31
2024-02-12T11:03:49.289Z,97021.78
2024-02-12T11:06:19.516Z,97019.41
2024-02-12T11:08:48.549Z,97021.28
2024-02-12T11:11:22.164Z,97027.09
2024-02-12T11:13:49.573Z,97018.31
2024-02-12T11:16:17.427Z,97028.75
2024-02-12T11:18:44.589Z,97030.63
2024-02-12T11:21:12.193Z,97028.75
2024-02-12T11:23:43.188Z,97028.97
2024-02-12T11:26:11.276Z,97029.53
2024-02-12T11:28:39.371Z,97034.50
2024-02-12T11:31:06.300Z,97037.88
2024-02-12T11:33:33.080Z,97036.78
2024-02-12T11:36:07.321Z,97035.72
2024-02-12T11:38:37.200Z,97033.84
2024-02-12T11:41:06.698Z,97033.84
2024-02-12T11:43:34.558Z,97046.63
2024-02-12T11:46:04.238Z,97045.56
2024-02-12T11:48:31.140Z,97047.16
2024-02-12T11:50:58.141Z,97050.91
2024-02-12T11:53:26.356Z,97051.66
2024-02-12T11:55:53.111Z,97049.28
2024-02-12T11:58:19.839Z,97054.63
2024-02-12T12:00:46.510Z,97053.03
2024-02-12T12:03:14.335Z,97062.09
2024-02-12T12:05:43.012Z,97055.94
2024-02-12T12:08:11.455Z,97058.88
2024-02-12T12:10:38.154Z,97049.09
2024-02-12T12:13:05.098Z,97053.31
2024-02-12T12:15:32.055Z,97053.59
2024-02-12T12:18:01.928Z,97053.59
2024-02-12T12:20:31.553Z,97055.19
2024-02-12T12:23:01.844Z,97054.69
2024-02-12T12:25:28.654Z,97061.59
2024-02-12T12:27:56.258Z,97069.56
2024-02-12T12:30:23.831Z,97054.41
2024-02-12T12:32:51.521Z,97063.75
2024-02-12T12:35:19.092Z,97069.28
2024-02-12T12:37:50.913Z,97071.16
2024-02-12T12:40:20.729Z,97070.38
2024-02-12T12:42:51.754Z,97068.31
2024-02-12T12:45:18.833Z,97061.66
2024-02-12T12:47:46.504Z,97066.22
2024-02-12T12:50:15.470Z,97072.88
2024-02-12T12:52:42.738Z,97063.81
2024-02-12T12:55:14.091Z,97068.31
2024-02-12T12:57:41.353Z,97082.44
2024-02-12T13:00:17.017Z,97070.97
2024-02-12T13:02:47.674Z,97071.56
2024-02-12T13:05:14.733Z,97077.09
2024-02-12T13:08:15.829Z,97074.72
2024-02-12T13:12:59.805Z,97082.88
2024-02-12T13:15:28.239Z,97087.09
2024-02-12T13:17:55.714Z,97083.38
2024-02-12T13:20:22.782Z,97083.94
2024-02-12T13:22:56.585Z,97087.38
2024-02-12T13:25:27.947Z,97089.75
2024-02-12T13:28:01.011Z,97087.06
2024-02-12T13:30:31.053Z,97087.91
2024-02-12T13:33:06.222Z,97080.50
2024-02-12T13:35:33.748Z,97093.78
2024-02-12T13:38:00.599Z,97098.34
2024-02-12T13:40:31.372Z,97106.00
2024-02-12T13:42:58.691Z,97103.66
2024-02-12T13:45:25.588Z,97109.97
2024-02-12T13:47:56.539Z,97111.56
2024-02-12T13:50:24.422Z,97111.28
2024-02-12T13:52:51.535Z,97111.00
2024-02-12T13:55:18.487Z,97114.16
2024-02-12T13:57:51.335Z,97114.44
2024-02-12T14:02:52.765Z,97128.47
2024-02-12T14:05:20.305Z,97135.94
2024-02-12T14:07:50.385Z,97134.88
2024-02-12T14:10:21.969Z,97139.41
2024-02-12T14:12:51.687Z,97140.97
2024-02-12T14:16:01.493Z,97145.81
2024-02-12T14:18:10.754Z,97154.84
2024-02-12T14:20:38.019Z,97151.13
2024-02-12T14:23:10.513Z,97162.78
2024-02-12T14:25:37.306Z,97156.91
2024-02-12T14:28:06.560Z,97159.56
2024-02-12T14:30:35.594Z,97164.88
2024-02-12T14:33:03.689Z,97162.50
2024-02-12T14:35:36.434Z,97165.69
2024-02-12T14:38:03.664Z,97174.16
2024-02-12T14:40:30.645Z,97179.44
2024-02-12T14:42:57.304Z,97177.63
2024-02-12T14:45:31.057Z,97180.28
2024-02-12T14:48:06.926Z,97188.25
2024-02-12T14:50:35.411Z,97185.84
2024-02-12T14:53:02.582Z,97201.81
2024-02-12T14:55:29.278Z,97198.06
2024-02-12T14:57:56.075Z,97199.91
2024-02-12T15:00:25.573Z,97195.16
2024-02-12T15:02:53.402Z,97206.59
2024-02-12T15:05:20.406Z,97205.03
2024-02-12T15:07:48.424Z,97219.91
2024-02-12T15:10:22.391Z,97217.47
2024-02-12T15:12:49.854Z,97213.69
2024-02-12T15:15:20.081Z,97217.44
2024-02-12T15:17:48.112Z,97225.72
2024-02-12T15:20:15.069Z,97224.06
2024-02-12T15:22:41.796Z,97226.72
2024-02-12T15:25:10.572Z,97232.31
2024-02-12T15:27:39.187Z,97231.84
2024-02-12T15:30:09.428Z,97236.06
2024-02-12T15:32:36.765Z,97239.06
2024-02-12T15:35:15.005Z,97245.44
2024-02-12T15:37:44.440Z,97241.19
2024-02-12T15:40:18.594Z,97248.88
2024-02-12T15:42:47.072Z,97257.41
2024-02-12T15:45:13.986Z,97259.81
2024-02-12T15:47:44.947Z,97265.66
2024-02-12T15:50:13.291Z,97263.78
2024-02-12T15:52:43.464Z,97266.97
2024-02-12T15:55:12.156Z,97274.94
2024-02-12T15:57:39.478Z,97281.88
2024-02-12T16:00:15.554Z,97283.69
2024-02-12T16:02:45.957Z,97285.63
2024-02-12T16:05:51.146Z,97296.53
2024-02-12T16:08:18.844Z,97292.31
2024-02-12T16:10:45.538Z,97294.97
2024-02-12T16:13:13.082Z,97296.53
2024-02-12T16:15:40.894Z,97301.09
2024-02-12T16:18:09.643Z,97308.00
2024-02-12T16:20:36.722Z,97307.75
2024-02-12T16:23:03.714Z,97310.41
2024-02-12T16:25:30.603Z,97318.91
2024-02-12T16:27:58.084Z,97349.25
2024-02-12T16:30:25.108Z,97368.38
2024-02-12T16:32:52.717Z,97371.56
2024-02-12T16:35:20.990Z,97364.09
2024-02-12T16:37:48.251Z,97372.66
2024-02-12T16:40:14.964Z,97370.00
2024-02-12T16:42:43.512Z,97365.50
2024-02-12T16:45:10.694Z,97371.03
2024-02-12T16:47:41.138Z,97364.66
2024-02-12T16:50:09.165Z,97378.47
2024-02-12T16:52:36.803Z,97380.84
2024-02-12T16:55:04.730Z,97384.59
2024-02-12T16:57:33.138Z,97388.34
2024-02-12T16:59:59.944Z,97396.28
2024-02-12T17:02:29.259Z,97393.09
2024-02-12T17:04:56.755Z,97407.75
2024-02-12T17:07:24.891Z,97403.50
2024-02-12T17:09:51.575Z,97413.88
2024-02-12T17:12:20.333Z,97411.69
2024-02-12T17:14:47.443Z,97415.16
2024-02-12T17:17:15.494Z,97417.31
2024-02-12T17:19:42.765Z,97420.22
2024-02-12T17:22:11.347Z,97423.94
2024-02-12T17:24:38.506Z,97426.03
2024-02-12T17:27:05.596Z,97435.38
2024-02-12T17:29:32.401Z,97447.59
2024-02-12T17:31:59.066Z,97447.09
2024-02-12T17:34:26.927Z,97449.75
2024-02-12T17:36:53.752Z,97447.66
2024-02-12T17:39:20.617Z,97455.88
2024-02-12T17:41:48.199Z,97455.63
2024-02-12T17:44:15.167Z,97465.72
2024-02-12T17:46:42.210Z,97463.06
2024-02-12T17:49:09.091Z,97474.06
2024-02-12T17:51:35.835Z,97471.59
2024-02-12T17:54:02.520Z,97484.13
2024-02-12T17:56:29.698Z,97487.84
2024-02-12T17:58:58.321Z,97497.75
2024-02-12T18:01:26.747Z,97508.66
2024-02-12T18:03:54.687Z,97520.88
2024-02-12T18:06:22.608Z,97524.88
2024-02-12T18:08:50.426Z,97522.47
2024-02-12T18:11:17.336Z,97520.84
2024-02-12T18:13:44.354Z,97515.00
2024-02-12T18:16:11.182Z,97518.19
2024-02-12T18:18:38.111Z,97515.28
2024-02-12T18:21:04.968Z,97522.47
2024-02-12T18:23:31.745Z,97510.50
2024-02-12T18:26:00.891Z,97519.00
2024-02-12T18:28:27.825Z,97528.06
2024-02-12T18:30:54.502Z,97529.13
2024-02-12T18:33:21.277Z,97527.53
2024-02-12T18:35:48.509Z,97535.53
2024-02-12T18:38:15.338Z,97533.13
2024-02-12T18:40:42.085Z,97533.63
2024-02-12T18:43:08.679Z,97542.41
2024-02-12T18:45:35.629Z,97539.00
2024-02-12T18:48:02.993Z,97547.53
2024-02-12T18:50:30.329Z,97550.72
2024-02-12T18:52:57.219Z,97553.13
2024-02-12T18:55:23.958Z,97556.28
2024-02-12T18:57:50.649Z,97561.03
2024-02-12T19:00:17.816Z,97570.09
2024-02-12T19:02:47.722Z,97577.81
2024-02-12T19:05:14.985Z,97586.06
2024-02-12T19:07:41.961Z,97591.63
2024-02-12T19:10:12.638Z,97590.56
2024-02-12T19:12:42.983Z,97589.25
2024-02-12T19:15:15.682Z,97586.88
2024-02-12T19:17:43.278Z,97591.13
2024-02-12T19:20:12.202Z,97598.28
2024-02-12T19:22:39.910Z,97604.16
2024-02-12T19:25:07.296Z,97608.94
2024-02-12T19:27:43.015Z,97608.94
2024-02-12T19:30:11.244Z,97608.44
2024-02-12T19:32:39.551Z,97617.19
2024-02-12T19:35:09.794Z,97614.53
2024-02-12T19:37:38.966Z,97612.13
2024-02-12T19:40:16.038Z,97622.28
2024-02-12T19:42:45.849Z,97628.69
2024-02-12T19:45:13.062Z,97628.16
2024-02-12T19:47:40.590Z,97632.16
2024-02-12T19:50:07.891Z,97637.19
2024-02-12T19:52:34.611Z,97638.78
2024-02-12T19:55:01.214Z,97643.28
2024-02-12T19:57:28.913Z,97650.19
2024-02-12T19:59:56.596Z,97647.00
2024-02-12T20:02:24.727Z,97654.16
2024-02-12T20:04:51.548Z,97658.44
2024-02-12T20:07:18.308Z,97663.22
2024-02-12T20:09:44.937Z,97655.25
2024-02-12T20:12:11.680Z,97665.09
2024-02-12T20:14:38.580Z,97671.47
2024-02-12T20:17:07.279Z,97681.31
2024-02-12T20:19:34.819Z,97675.47
2024-02-12T20:22:01.632Z,97676.81
2024-02-12T20:24:28.547Z,97681.06
2024-02-12T20:26:55.291Z,97682.38
2024-02-12T20:29:22.028Z,97689.84
2024-02-12T20:31:49.508Z,97693.31
2024-02-12T20:34:16.156Z,97701.56
2024-02-12T20:36:42.853Z,97700.78
2024-02-12T20:39:10.837Z,97698.91
2024-02-12T20:41:39.028Z,97713.03
2024-02-12T20:44:06.637Z,97718.63
2024-02-12T20:46:33.466Z,97721.00
2024-02-12T20:49:00.612Z,97720.44
2024-02-12T20:51:27.586Z,97714.06
2024-02-12T20:53:54.200Z,97723.63
2024-02-12T20:56:20.889Z,97718.06
2024-02-12T20:58:47.592Z,97729.75
2024-02-12T21:01:16.080Z,97728.44
2024-02-12T21:03:42.910Z,97730.53
2024-02-12T21:06:10.300Z,97736.94
2024-02-12T21:08:37.593Z,97734.56
2024-02-12T21:11:04.775Z,97741.22
2024-02-12T21:13:36.947Z,97737.75
2024-02-12T21:16:07.282Z,97752.38
2024-02-12T21:18:34.332Z,97745.75
2024-02-12T21:21:01.398Z,97750.53
2024-02-12T21:23:29.969Z,97759.56
2024-02-12T21:25:56.932Z,97762.50
2024-02-12T21:28:24.949Z,97765.94
2024-02-12T21:30:51.687Z,97772.06
2024-02-12T21:33:18.582Z,97774.72
2024-02-12T21:35:48.932Z,97772.88
2024-02-12T21:38:15.906Z,97775.00
2024-02-12T21:40:44.774Z,97772.84
2024-02-12T21:43:11.494Z,97783.75
2024-02-12T21:45:38.573Z,97787.25
2024-02-12T21:48:05.998Z,97787.78
2024-02-12T21:50:37.630Z,97794.94
2024-02-12T21:53:04.722Z,97799.72
2024-02-12T21:55:31.463Z,97796.25
2024-02-12T21:57:59.319Z,97802.41
2024-02-12T22:00:26.059Z,97802.41
2024-02-12T22:02:53.422Z,97809.81
2024-02-12T22:05:21.375Z,97815.41
2024-02-12T22:07:48.111Z,97816.47
2024-02-12T22:10:14.727Z,97817.78
2024-02-12T22:12:43.681Z,97817.81
2024-02-12T22:15:11.052Z,97818.88
2024-02-12T22:17:40.305Z,97822.06
2024-02-12T22:20:07.443Z,97829.53
2024-02-12T22:22:34.157Z,97844.41
2024-02-12T22:25:00.773Z,97856.94
2024-02-12T22:27:27.409Z,97855.56
2024-02-12T22:29:54.305Z,97855.06
2024-02-12T22:32:21.031Z,97856.91
2024-02-12T22:34:47.859Z,97855.31
2024-02-12T22:37:15.045Z,97862.22
2024-02-12T22:39:41.878Z,97865.97
2024-02-12T22:42:11.465Z,97866.47
2024-02-12T22:44:38.460Z,97883.75
2024-02-12T22:47:05.297Z,97880.00
2024-02-12T22:49:32.217Z,97881.91
2024-02-12T22:51:59.607Z,97891.19
2024-02-12T22:54:26.306Z,97896.28
2024-02-12T22:56:52.970Z,97897.59
2024-02-12T22:59:19.710Z,97897.59
2024-02-12T23:01:47.081Z,97897.06
2024-02-12T23:04:13.754Z,97904.78
2024-02-12T23:06:40.476Z,97912.78
2024-02-12T23:09:07.726Z,97911.97
2024-02-12T23:11:34.443Z,97917.81
2024-02-12T23:14:01.099Z,97919.16
2024-02-12T23:16:27.757Z,97920.72
2024-02-12T23:18:54.607Z,97926.06
2024-02-12T23:21:21.682Z,97934.56
2024-02-12T23:23:49.915Z,97933.19
2024-02-12T23:26:16.670Z,97933.19
2024-02-12T23:28:43.300Z,97930.00
2024-02-12T23:31:09.942Z,97937.47
2024-02-12T23:33:37.061Z,97946.53
2024-02-12T23:36:09.588Z,97950.78
2024-02-12T23:38:40.584Z,97953.19
2024-02-12T23:41:07.362Z,97954.53
2024-02-12T23:43:34.027Z,97958.78
2024-02-12T23:46:01.084Z,97964.91
2024-02-12T23:48:27.945Z,97962.25
2024-02-12T23:50:54.735Z,97971.78
2024-02-12T23:53:23.115Z,97972.03
2024-02-12T23:55:49.958Z,97976.25
2024-02-12T23:58:16.585Z,97983.44
